Tiempo atmosférico en la estación meteorológica de Villacarriedo, Cantabria (194 m.)



Fecha
DESCASC
Temp. máxima en grados centígrados (hora)
DESCASC
Temp. mínima en grados centígrados (hora)
DESCASC
Temp. media en grados centígrados
DESCASC
Racha de viento máxima en m/sg (hora)
DESCASC
Velocidad máxima media en intervalos de 10 minutos(hora)
DESCASC
Precipitaciones diarias en mm
DESCASC
Precipitaciones de 00:00 a 06:00 en mm
DESCASC
Precipitaciones de 06:00 a 12:00 en mm
DESCASC
Precipitaciones de 12:00 a 18:00 en mm
DESCASC
Precipitaciones de 18:00 a 24:00 en mm
DESCASC
06-07-2020 18.5 (00:00) 15.3 (23:59) 16.9 7.5 (11:40) 3.89 (11:00) 1.2 0 1.2 0 0
05-07-2020 25.2 (13:20) 11.7 (07:00) 18.5 7.78 (14:30) 4.72 (15:20) 0 0 0 0 0
04-07-2020 24.8 (16:00) 8.9 (07:00) 16.8 6.39 (16:50) 3.89 (16:40) 0 0 0 0 0
03-07-2020 20.4 (17:20) 13.4 (06:50) 16.9 6.94 (16:50) 3.89 (16:50) 0.2 0.2 0 0 0
02-07-2020 16.5 (15:10) 13.8 (00:00) 15.2 5.83 (17:50) 2.78 (17:50) 6 2.8 1.4 0 1.8
01-07-2020 21.2 (13:10) 15.4 (00:00) 18.3 6.11 (19:30) 3.33 (19:10) 1.6 0 0 1 0.6
30-06-2020 24.9 (14:30) 12.1 (00:00) 18.5 6.94 (17:50) 4.17 (15:50) 0 0 0 0 0
29-06-2020 18.3 (17:20) 15.2 (00:00) 16.7 5.56 (14:30) 3.61 (14:10) 3 2.6 0.4 0 0
28-06-2020 25 (13:20) 16.3 (00:00) 20.6 7.5 (18:10) 5 (16:10) 1.2 0.4 0 0 0.8
27-06-2020 26.1 (13:40) 10.9 (00:00) 18.5 7.22 (15:00) 4.17 (15:00) 0 0 0 0 0
26-06-2020 20.5 (20:40) 14.9 (00:00) 17.7 4.17 (18:50) 2.5 (18:50) 2 0.8 0.2 1 0
25-06-2020 20.3 (03:20) 16.1 (00:00) 18.2 8.33 (11:00) 3.89 (14:30) 3.2 0 0.2 1.2 1.8
24-06-2020 24.3 (16:20) 16.3 (00:00) 20.3 6.94 (20:40) 3.61 (20:40) 0 0 0 0 0
23-06-2020 29.4 (16:30) 13.8 (00:00) 21.6 5.83 (16:20) 3.61 (17:50) 0 0 0 0 0
22-06-2020 25.5 (15:50) 13.3 (00:00) 19.4 6.11 (16:50) 3.89 (16:10) 0 0 0 0 0
21-06-2020 23.3 (14:50) 11.2 (00:00) 17.2 7.22 (15:50) 4.17 (15:50) 0 0 0 0 0
20-06-2020 22.7 (18:40) 9.5 (00:00) 16.1 7.78 (16:20) 4.17 (16:20) 0 0 0 0 0
19-06-2020 19.8 (15:10) 11.1 (00:00) 15.4 7.22 (16:40) 3.89 (16:40) 0 0 0 0 0
18-06-2020 18.3 (14:20) 12.3 (00:00) 15.3 5.83 (16:10) 3.61 (14:00) 3.6 3.6 0 0 0
17-06-2020 18.2 (15:30) 11.8 (00:00) 15 7.22 (15:30) 4.17 (15:50) 0.2 0 0.2 0 0
16-06-2020 15.8 (10:40) 12.3 (00:00) 14.1 6.67 (15:20) 3.33 (19:30) 2 0.4 0.2 1.4 0
15-06-2020 20.1 (14:50) 13.3 (00:00) 16.7 7.22 (16:10) 3.89 (16:10) 5.2 0.2 0 0 5
14-06-2020 20.2 (13:10) 12 (00:00) 16.1 6.67 (15:50) 4.17 (16:00) 0.6 0 0 0 0.6
13-06-2020 19.5 (14:30) 9.6 (00:00) 14.6 6.67 (15:30) 3.89 (15:30) 1.6 0.2 0 0.8 0.6
12-06-2020 17.7 (14:20) 8.8 (00:00) 13.3 13.61 (03:50) 7.22 (02:40) 8.8 0.2 0 8.6 0
11-06-2020 16.8 (11:40) 8.9 (00:00) 12.8 11.94 (13:10) 6.39 (12:30) 19.2 0 0.6 10.2 8.4
10-06-2020 18.2 (12:50) 7.1 (00:00) 12.7 6.11 (13:30) 3.06 (14:30) 0 0 0 0 0

Gráficas

Temp. máximas Temp. mínimas Temp. medias Precipitaciones Rachas de viento máximas Velocidades máximas media en intervalos de 10 minutos

Datos horarios

Fecha y hora oficial Temperatura (ºC) Velocidad del viento (km/h) Dirección del viento Racha (km/h) Dirección de racha Precipitación (mm) Presión (hPa) Tendencia (hPa) Humedad (%)
2020-07-09 23:00:00 19.3 3 Norte 6 Norte 0 -- -- 85
2020-07-09 22:00:00 19.8 3 Este 8 Nordeste 0 -- -- 82
2020-07-09 21:00:00 20.2 5 Norte 10 Sur 0 -- -- 77
2020-07-09 20:00:00 20.4 6 Nordeste 18 Nordeste 0 -- -- 78
2020-07-09 19:00:00 21.2 8 Nordeste 11 Nordeste 0 -- -- 72
2020-07-09 18:00:00 21 6 Norte 14 Norte 0 -- -- 80
2020-07-09 17:00:00 20.9 9 Norte 18 Nordeste 0 -- -- 81
2020-07-09 16:00:00 21.5 9 Nordeste 21 Norte 0 -- -- 80
2020-07-09 15:00:00 23.1 10 Nordeste 19 Norte 0 -- -- 74
2020-07-09 14:00:00 23.8 10 Nordeste 20 Nordeste 0 -- -- 70
2020-07-09 13:00:00 23.9 9 Nordeste 15 Nordeste 0 -- -- 69
2020-07-09 12:00:00 23 6 Norte 13 Nordeste 0 -- -- 69
2020-07-09 11:00:00 22.2 5 Este 12 Este 0 -- -- 71
2020-07-09 10:00:00 19.9 4 Norte 8 Norte 0 -- -- 78
2020-07-09 09:00:00 17.4 0 Calma 4 Oeste 0 -- -- 91
2020-07-09 08:00:00 16.3 0 Calma 5 Noroeste 0 -- -- 94
2020-07-09 07:00:00 15.9 2 Nordeste 4 Este 0 -- -- 96
2020-07-09 06:00:00 15.4 2 Sudoeste 7 Noroeste 0 -- -- 96
2020-07-09 05:00:00 15.8 4 Noroeste 9 Sudoeste 0 -- -- 94
2020-07-09 04:00:00 16.1 3 Este 9 Nordeste 0 -- -- 93
2020-07-09 03:00:00 16.4 3 Noroeste 5 Sudoeste 0 -- -- 92
2020-07-09 02:00:00 16.9 3 Nordeste 9 Noroeste 0 -- -- 89
2020-07-09 01:00:00 17.5 2 Sudoeste 6 Nordeste 0 -- -- 87
2020-07-09 00:00:00 18.5 2 Este 6 Oeste 0 -- -- 83
2020-07-08 23:00:00 19.2 4 Nordeste 15 Oeste 0 -- -- 78
2020-07-08 22:00:00 20.5 3 Noroeste 11 Noroeste 0 -- -- 66
2020-07-08 21:00:00 22 5 Noroeste 13 Noroeste 0 -- -- 60
2020-07-08 20:00:00 22.8 5 Nordeste 14 Norte 0 -- -- 59
2020-07-08 19:00:00 23.5 9 Norte 24 Norte 0 -- -- 60
2020-07-08 18:00:00 24.5 15 Norte 24 Norte 0 -- -- 61
2020-07-08 17:00:00 24.9 13 Norte 22 Nordeste 0 -- -- 61
2020-07-08 16:00:00 25.2 12 Norte 22 Norte 0 -- -- 64
2020-07-08 15:00:00 25.4 12 Norte 21 Nordeste 0 -- -- 61
2020-07-08 14:00:00 25.5 4 Oeste 14 Oeste 0 -- -- 62
2020-07-08 13:00:00 23.4 5 Noroeste 14 Noroeste 0 -- -- 67
2020-07-08 12:00:00 21.9 4 Norte 11 Nordeste 0 -- -- 71
2020-07-08 11:00:00 20.5 5 Norte 10 Norte 0 -- -- 78
2020-07-08 10:00:00 18.7 3 Norte 8 Nordeste 0 -- -- 84
2020-07-08 09:00:00 16.8 3 Nordeste 7 Nordeste 0 -- -- 92
2020-07-08 08:00:00 15.1 3 Sudoeste 6 Norte 0 -- -- 97
2020-07-08 07:00:00 14.4 2 Noroeste 3 Norte 0 -- -- 97
2020-07-08 06:00:00 14.2 3 Noroeste 3 Noroeste 0 -- -- 97
2020-07-08 05:00:00 14.4 2 Oeste 6 Noroeste 0 -- -- 96
2020-07-08 04:00:00 14.7 2 Norte 4 Noroeste 0 -- -- 94
2020-07-08 03:00:00 15.7 2 Nordeste 6 Norte 0 -- -- 92
2020-07-08 02:00:00 16.7 3 Norte 5 Noroeste 0 -- -- 87
2020-07-08 01:00:00 17.8 0 Calma 12 Noroeste 0 -- -- 81
2020-07-08 00:00:00 18.1 5 Noroeste 11 Noroeste 0 -- -- 81
2020-07-07 23:00:00 18.5 7 Noroeste 12 Noroeste 0 -- -- 81
2020-07-07 22:00:00 19.4 4 Noroeste 8 Noroeste 0 -- -- 79
2020-07-07 21:00:00 20.6 5 Norte 15 Norte 0 -- -- 76
2020-07-07 20:00:00 21.7 8 Norte 19 Norte 0 -- -- 72
2020-07-07 19:00:00 22.3 11 Norte 21 Norte 0 -- -- 71
2020-07-07 18:00:00 22.6 13 Norte 22 Norte 0 -- -- 70
2020-07-07 17:00:00 22.7 13 Norte 22 Noroeste 0 -- -- 69
2020-07-07 16:00:00 22.7 13 Norte 22 Norte 0 -- -- 65
2020-07-07 15:00:00 22.4 13 Norte 19 Norte 0 -- -- 64
2020-07-07 14:00:00 21.9 9 Norte 15 Norte 0 -- -- 60
2020-07-07 13:00:00 20.6 8 Norte 15 Norte 0 -- -- 62
2020-07-07 12:00:00 19.6 6 Nordeste 13 Este 0 -- -- 62
2020-07-07 11:00:00 18.1 3 Oeste 8 Este 0 -- -- 74
2020-07-07 10:00:00 16.4 3 Nordeste 6 Nordeste 0 -- -- 77
2020-07-07 09:00:00 13 0 Calma 5 Noroeste 0 -- -- 99
2020-07-07 08:00:00 12.8 0 Calma 3 Sudoeste 0 -- -- 99
2020-07-07 07:00:00 12.4 0 Calma 2 Este 0 -- -- 99
2020-07-07 06:00:00 12.4 2 Este 3 Este 0 -- -- 98
2020-07-07 05:00:00 12.3 0 Calma 5 Noroeste 0 -- -- 98
2020-07-07 04:00:00 12.9 0 Calma 4 Noroeste 0 -- -- 96
2020-07-07 03:00:00 13.1 0 Calma 5 Nordeste 0 -- -- 97
2020-07-07 02:00:00 13.6 0 Calma 5 Noroeste 0 -- -- 95
2020-07-07 01:00:00 14.2 2 Norte 5 Nordeste 0 -- -- 93
2020-07-07 00:00:00 15.3 3 Noroeste 6 Noroeste 0 -- -- 90
2020-07-06 23:00:00 16 4 Noroeste 8 Noroeste 0 -- -- 88
2020-07-06 22:00:00 16.4 4 Noroeste 17 Norte 0 -- -- 87
2020-07-06 21:00:00 17 5 Noroeste 16 Norte 0 -- -- 86
2020-07-06 20:00:00 17.7 7 Noroeste 20 Norte 0 -- -- 83
2020-07-06 19:00:00 18.1 11 Norte 21 Norte 0 -- -- 83
2020-07-06 18:00:00 18.4 10 Norte 21 Norte 0 -- -- 84
2020-07-06 17:00:00 18.1 14 Norte 23 Norte 0 -- -- 84
2020-07-06 16:00:00 17.9 13 Norte 24 Norte 0 -- -- 86
2020-07-06 15:00:00 18.3 11 Norte 26 Norte 0 -- -- 87
2020-07-06 14:00:00 18.4 14 Norte 26 Norte 0 -- -- 87
2020-07-06 13:00:00 18 8 Norte 22 Norte 0 -- -- 92
2020-07-06 12:00:00 18.2 12 Norte 27 Norte 0 -- -- 93
2020-07-06 11:00:00 17.7 14 Norte 24 Norte 0 -- -- 96
2020-07-06 10:00:00 17.6 5 Norte 16 Norte 0.2 -- -- 98
2020-07-06 09:00:00 17.2 0 Calma 10 Norte 0 -- -- 98
2020-07-06 08:00:00 17.2 4 Norte 11 Norte 0.6 -- -- 98
2020-07-06 07:00:00 17.2 0 Calma 5 Norte 0.4 -- -- 97
2020-07-06 06:00:00 17.6 2 Norte 3 Norte 0 -- -- 95
2020-07-06 05:00:00 17.9 0 Calma 5 Noroeste 0 -- -- 93
2020-07-06 04:00:00 18.1 2 Noroeste 4 Noroeste 0 -- -- 92
2020-07-06 03:00:00 18.1 0 Calma 5 Norte 0 -- -- 91
2020-07-06 02:00:00 18.3 2 Norte 4 Este 0 -- -- 90
2020-07-06 01:00:00 18.4 2 Este 6 Norte 0 -- -- 89
2020-07-06 00:00:00 18.5 5 Noroeste 10 Noroeste 0 -- -- 88
2020-07-05 23:00:00 18.9 4 Noroeste 12 Oeste 0 -- -- 86
2020-07-05 22:00:00 19.2 4 Norte 13 Norte 0 -- -- 85
2020-07-05 21:00:00 20.5 8 Norte 19 Norte 0 -- -- 79
2020-07-05 20:00:00 22.1 10 Norte 17 Norte 0 -- -- 74
2020-07-05 19:00:00 22.5 10 Norte 19 Nordeste 0 -- -- 69
2020-07-05 18:00:00 23.2 11 Norte 21 Norte 0 -- -- 67
2020-07-05 17:00:00 23.8 12 Nordeste 24 Norte 0 -- -- 66
2020-07-05 16:00:00 24 14 Norte 27 Norte 0 -- -- 65
2020-07-05 15:00:00 24.5 14 Norte 28 Norte 0 -- -- 61
2020-07-05 14:00:00 25.1 12 Nordeste 19 Nordeste 0 -- -- 59
2020-07-05 13:00:00 24.7 9 Nordeste 16 Nordeste 0 -- -- 59
2020-07-05 12:00:00 23.7 7 Nordeste 12 Nordeste 0 -- -- 54
2020-07-05 11:00:00 21.9 3 Nordeste 8 Este 0 -- -- 58
2020-07-05 10:00:00 18.7 2 Nordeste 6 Norte 0 -- -- 79
2020-07-05 09:00:00 15.3 2 Norte 4 Norte 0 -- -- 89
2020-07-05 08:00:00 13 0 Calma 3 Sudeste 0 -- -- 95
2020-07-05 07:00:00 11.7 2 Sudoeste 4 Oeste 0 -- -- 95
2020-07-05 06:00:00 12.2 3 Oeste 5 Oeste 0 -- -- 95
2020-07-05 05:00:00 12.5 0 Calma 3 Noroeste 0 -- -- 93
2020-07-05 04:00:00 13.1 0 Calma 5 Noroeste 0 -- -- 95
2020-07-05 03:00:00 13.5 2 Oeste 3 Sudoeste 0 -- -- 92
2020-07-05 02:00:00 14.1 0 Calma 5 Noroeste 0 -- -- 91
2020-07-05 01:00:00 14.8 2 Sur 4 Sudoeste 0 -- -- 90
2020-07-05 00:00:00 15.9 2 Sudoeste 4 Sudoeste 0 -- -- 87
2020-07-04 23:00:00 17.1 2 Sudoeste 9 Nordeste 0 -- -- 85
2020-07-04 22:00:00 18.9 6 Nordeste 12 Nordeste 0 -- -- 76
2020-07-04 21:00:00 21 9 Nordeste 15 Nordeste 0 -- -- 69
2020-07-04 20:00:00 23.1 8 Nordeste 15 Norte 0 -- -- 64
2020-07-04 19:00:00 23.9 9 Nordeste 13 Nordeste 0 -- -- 56
2020-07-04 18:00:00 23.6 10 Nordeste 21 Norte 0 -- -- 58
2020-07-04 17:00:00 23.6 13 Norte 23 Nordeste 0 -- -- 64
2020-07-04 16:00:00 24.8 8 Nordeste 15 Norte 0 -- -- 52
2020-07-04 15:00:00 24.2 6 Nordeste 12 Nordeste 0 -- -- 53
2020-07-04 14:00:00 23.4 5 Norte 13 Nordeste 0 -- -- 57
2020-07-04 13:00:00 22.1 7 Nordeste 17 Nordeste 0 -- -- 66
2020-07-04 12:00:00 21.3 5 Norte 11 Norte 0 -- -- 64
2020-07-04 11:00:00 18.8 4 Noroeste 8 Noroeste 0 -- -- 73
2020-07-04 10:00:00 15.5 0 Calma 5 Este 0 -- -- 94
2020-07-04 09:00:00 11.8 3 Este 5 Este 0 -- -- 100
2020-07-04 08:00:00 9.6 0 Calma 3 Oeste 0 -- -- 100
2020-07-04 07:00:00 8.9 0 Calma 4 Noroeste 0 -- -- 99
2020-07-04 06:00:00 9.3 0 Calma 2 Oeste 0 -- -- 99
2020-07-04 05:00:00 9.6 0 Calma 6 Noroeste 0 -- -- 98
2020-07-04 04:00:00 10.4 0 Calma 5 Oeste 0 -- -- 97
2020-07-04 03:00:00 10.8 2 Sur 5 Noroeste 0 -- -- 96
2020-07-04 02:00:00 11.4 2 Sudoeste 4 Sur 0 -- -- 94
2020-07-04 01:00:00 12.1 2 Sudoeste 6 Noroeste 0 -- -- 93
2020-07-04 00:00:00 13.6 0 Calma 3 Sudoeste 0 -- -- 91
2020-07-03 23:00:00 14.6 0 Calma 5 Sudoeste 0 -- -- 86
2020-07-03 22:00:00 16.6 4 Oeste 9 Oeste 0 -- -- 79
2020-07-03 21:00:00 17.7 6 Noroeste 19 Norte 0 -- -- 76
2020-07-03 20:00:00 18.3 10 Norte 23 Norte 0 -- -- 74
2020-07-03 19:00:00 20 9 Norte 22 Norte 0 -- -- 68
2020-07-03 18:00:00 20.3 12 Norte 22 Norte 0 -- -- 69
2020-07-03 17:00:00 20.2 12 Nordeste 25 Norte 0 -- -- 67
2020-07-03 16:00:00 19.2 13 Norte 21 Norte 0 -- -- 70
2020-07-03 15:00:00 19.9 10 Norte 21 Noroeste 0 -- -- 69
2020-07-03 14:00:00 19.4 10 Nordeste 19 Norte 0 -- -- 63
2020-07-03 13:00:00 18.6 7 Norte 14 Norte 0 -- -- 73
2020-07-03 12:00:00 17.6 8 Norte 13 Norte 0 -- -- 77
2020-07-03 11:00:00 17.7 4 Noroeste 10 Oeste 0 -- -- 72
2020-07-03 10:00:00 17.2 5 Sudeste 8 Sudeste 0 -- -- 83
2020-07-03 09:00:00 15.1 2 Sudeste 5 Sudeste 0 -- -- 91
2020-07-03 08:00:00 13.8 0 Calma 3 Este 0 -- -- 99
2020-07-03 07:00:00 13.4 0 Calma 5 Oeste 0 -- -- 99
2020-07-03 06:00:00 13.5 0 Calma 4 Oeste 0 -- -- 99
2020-07-03 05:00:00 13.5 3 Noroeste 6 Noroeste 0.2 -- -- 99
2020-07-03 04:00:00 13.6 0 Calma 3 Norte 0 -- -- 99
2020-07-03 03:00:00 13.7 0 Calma 5 Oeste 0 -- -- 98
2020-07-03 02:00:00 13.7 0 Calma 2 Oeste 0 -- -- 98
2020-07-03 01:00:00 13.8 2 Noroeste 5 Norte 0 -- -- 98
2020-07-03 00:00:00 13.9 3 Sudeste 6 Sudeste 0 -- -- 96
2020-07-02 23:00:00 13.9 2 Noroeste 9 Oeste 0 -- -- 94
2020-07-02 22:00:00 14.1 2 Oeste 6 Noroeste 1.4 -- -- 96
2020-07-02 21:00:00 14.5 0 Calma 8 Este 0.4 -- -- 94
2020-07-02 20:00:00 14.9 5 Sudeste 9 Sudeste 0 -- -- 90
2020-07-02 19:00:00 14.6 3 Sur 17 Noroeste 0 -- -- 91
2020-07-02 18:00:00 15.3 9 Oeste 21 Oeste 0 -- -- 85
2020-07-02 17:00:00 16.1 5 Nordeste 12 Norte 0 -- -- 88
2020-07-02 16:00:00 15.9 6 Norte 12 Noroeste 0 -- -- 91
2020-07-02 15:00:00 16.4 4 Nordeste 10 Oeste 0 -- -- 90
2020-07-02 14:00:00 15.6 8 Noroeste 18 Noroeste 0 -- -- 91
2020-07-02 13:00:00 16.1 4 Este 8 Norte 0 -- -- 89
2020-07-02 12:00:00 15.6 6 Este 12 Oeste 0 -- -- 95
2020-07-02 11:00:00 14.8 4 Norte 7 Norte 0.2 -- -- 97
2020-07-02 10:00:00 14.6 5 Este 8 Sudeste 0.2 -- -- 98
2020-07-02 09:00:00 14.4 3 Este 9 Oeste 0.2 -- -- 97
2020-07-02 08:00:00 14.1 6 Noroeste 12 Noroeste 0.4 -- -- 98
2020-07-02 07:00:00 14.2 0 Calma 9 Noroeste 0.4 -- -- 98
2020-07-02 06:00:00 14.1 6 Oeste 14 Noroeste 1 -- -- 97
2020-07-02 05:00:00 15 0 Calma 4 Noroeste 0.4 -- -- 99
2020-07-02 04:00:00 14.9 0 Calma 8 Nordeste 0.4 -- -- 99
2020-07-02 03:00:00 15.3 0 Calma 4 Norte 0.2 -- -- 98
2020-07-02 02:00:00 15.4 2 Este 4 Norte 0 -- -- 98
2020-07-02 01:00:00 15.4 4 Noroeste 6 Noroeste 0.8 -- -- 98
2020-07-02 00:00:00 15.7 0 Calma 2 Sudoeste 0.2 -- -- 97
2020-07-01 23:00:00 15.7 0 Calma 6 Norte 0.2 -- -- 97
2020-07-01 22:00:00 15.8 5 Norte 8 Norte 0 -- -- 97
2020-07-01 21:00:00 16.3 3 Norte 9 Norte 0 -- -- 96
2020-07-01 20:00:00 16.7 5 Norte 22 Noroeste 0 -- -- 95
2020-07-01 19:00:00 17.7 10 Noroeste 21 Noroeste 0.2 -- -- 94
2020-07-01 18:00:00 17.9 12 Noroeste 21 Noroeste 1 -- -- 94
2020-07-01 17:00:00 18.7 3 Este 7 Nordeste 0 -- -- 89
2020-07-01 16:00:00 18.8 3 Nordeste 19 Oeste 0 -- -- 90
2020-07-01 15:00:00 19 9 Noroeste 18 Noroeste 0 -- -- 87
2020-07-01 14:00:00 20.7 6 Nordeste 10 Norte 0 -- -- 78
2020-07-01 13:00:00 20.9 4 Oeste 10 Oeste 0 -- -- 74
2020-07-01 12:00:00 19.9 3 Nordeste 7 Noroeste 0 -- -- 77
2020-07-01 11:00:00 19 3 Norte 8 Norte 0 -- -- 84
2020-07-01 10:00:00 17.7 3 Noroeste 8 Noroeste 0 -- -- 89
2020-07-01 09:00:00 16.9 2 Noroeste 4 Noroeste 0 -- -- 94
2020-07-01 08:00:00 16.3 0 Calma 3 Norte 0 -- -- 95
2020-07-01 07:00:00 15.9 0 Calma 4 Noroeste 0 -- -- 96
2020-07-01 06:00:00 15.6 0 Calma 3 Nordeste 0 -- -- 95
2020-07-01 05:00:00 15.4 0 Calma 3 Sur 0 -- -- 93
2020-07-01 04:00:00 16 0 Calma 6 Noroeste 0 -- -- 92
2020-07-01 03:00:00 16.3 3 Norte 7 Sudeste 0 -- -- 91
2020-07-01 02:00:00 16.3 4 Noroeste 9 Noroeste 0 -- -- 90
2020-07-01 01:00:00 16.5 8 Noroeste 14 Noroeste 0 -- -- 89
2020-07-01 00:00:00 17.2 3 Sur 8 Sudeste 0 -- -- 88
2020-06-30 23:00:00 18.1 5 Noroeste 8 Noroeste 0 -- -- 82
2020-06-30 22:00:00 19.3 2 Oeste 15 Oeste 0 -- -- 74
2020-06-30 21:00:00 20.5 4 Noroeste 9 Norte 0 -- -- 69
2020-06-30 20:00:00 21.7 5 Nordeste 15 Noroeste 0 -- -- 63
2020-06-30 19:00:00 23.2 11 Norte 21 Norte 0 -- -- 58
2020-06-30 18:00:00 23.9 12 Norte 25 Norte 0 -- -- 61
2020-06-30 17:00:00 24.1 14 Norte 23 Norte 0 -- -- 64
2020-06-30 16:00:00 24.3 13 Norte 22 Nordeste 0 -- -- 64
2020-06-30 15:00:00 24.7 13 Nordeste 21 Nordeste 0 -- -- 64
2020-06-30 14:00:00 24.2 8 Nordeste 16 Nordeste 0 -- -- 58
2020-06-30 13:00:00 23.6 8 Norte 15 Norte 0 -- -- 57
2020-06-30 12:00:00 22.7 6 Nordeste 13 Nordeste 0 -- -- 50
2020-06-30 11:00:00 20.7 6 Norte 9 Norte 0 -- -- 56
2020-06-30 10:00:00 18 2 Sur 5 Nordeste 0 -- -- 84
2020-06-30 09:00:00 14.8 2 Este 5 Nordeste 0 -- -- 98
2020-06-30 08:00:00 12.6 2 Norte 4 Noroeste 0 -- -- 99
2020-06-30 07:00:00 12.1 0 Calma 4 Noroeste 0 -- -- 99
2020-06-30 06:00:00 12.4 0 Calma 4 Noroeste 0 -- -- 98
2020-06-30 05:00:00 12.7 0 Calma 5 Noroeste 0 -- -- 97
2020-06-30 04:00:00 13.4 2 Sur 5 Noroeste 0 -- -- 96
2020-06-30 03:00:00 14.3 0 Calma 2 Sudoeste 0 -- -- 94
2020-06-30 02:00:00 15.2 0 Calma 7 Noroeste 0 -- -- 94
2020-06-30 01:00:00 16.7 3 Norte 5 Noroeste 0 -- -- 93
2020-06-30 00:00:00 17.1 0 Calma 2 Norte 0 -- -- 90
2020-06-29 23:00:00 17.2 0 Calma 4 Nordeste 0 -- -- 88
2020-06-29 22:00:00 17.4 0 Calma 5 Norte 0 -- -- 88
2020-06-29 21:00:00 17.6 3 Norte 12 Norte 0 -- -- 87
2020-06-29 20:00:00 17.7 7 Norte 13 Nordeste 0 -- -- 85
2020-06-29 19:00:00 18.2 6 Norte 15 Norte 0 -- -- 84
2020-06-29 18:00:00 18.1 8 Norte 15 Norte 0 -- -- 83
2020-06-29 17:00:00 18.2 10 Norte 19 Norte 0 -- -- 84
2020-06-29 16:00:00 17.9 11 Norte 18 Norte 0 -- -- 84
2020-06-29 15:00:00 17.7 10 Norte 20 Norte 0 -- -- 86
2020-06-29 14:00:00 17.7 11 Norte 20 Norte 0 -- -- 87
2020-06-29 13:00:00 18.1 12 Norte 17 Norte 0 -- -- 89
2020-06-29 12:00:00 17.8 9 Nordeste 14 Norte 0 -- -- 88
2020-06-29 11:00:00 17.7 2 Este 6 Nordeste 0 -- -- 87
2020-06-29 10:00:00 16.2 0 Calma 3 Oeste 0 -- -- 95
2020-06-29 09:00:00 15.6 0 Calma 3 Sudoeste 0 -- -- 96
2020-06-29 08:00:00 15.3 0 Calma 4 Sudeste 0.2 -- -- 97
2020-06-29 07:00:00 15.3 0 Calma 9 Nordeste 0.2 -- -- 98
2020-06-29 06:00:00 15.5 6 Norte 8 Norte 0.6 -- -- 98
2020-06-29 05:00:00 15.9 0 Calma 4 Noroeste 0.2 -- -- 98
2020-06-29 04:00:00 16.1 3 Norte 4 Noroeste 0.6 -- -- 97
2020-06-29 03:00:00 16.2 0 Calma 5 Oeste 0 -- -- 95
2020-06-29 02:00:00 16.4 5 Noroeste 16 Noroeste 0.2 -- -- 93
2020-06-29 01:00:00 17.2 7 Noroeste 14 Noroeste 1 -- -- 97
2020-06-29 00:00:00 17.8 2 Noroeste 3 Norte 0.6 -- -- 95
2020-06-28 23:00:00 17.9 0 Calma 4 Sudeste 0.2 -- -- 93
2020-06-28 22:00:00 18.5 0 Calma 10 Noroeste 0 -- -- 90
2020-06-28 21:00:00 19.5 5 Norte 11 Norte 0 -- -- 81
2020-06-28 20:00:00 20.2 8 Norte 13 Norte 0 -- -- 77
2020-06-28 19:00:00 21.2 6 Norte 27 Noroeste 0 -- -- 73
2020-06-28 18:00:00 22.1 13 Norte 22 Norte 0 -- -- 69
2020-06-28 17:00:00 23.1 13 Noroeste 26 Norte 0 -- -- 68
2020-06-28 16:00:00 24.6 14 Norte 25 Norte 0 -- -- 57
2020-06-28 15:00:00 24.9 12 Nordeste 23 Nordeste 0 -- -- 61
2020-06-28 14:00:00 24.6 9 Nordeste 20 Norte 0 -- -- 61
2020-06-28 13:00:00 24.6 5 Norte 13 Nordeste 0 -- -- 63
2020-06-28 12:00:00 23.3 5 Sudeste 9 Este 0 -- -- 70
2020-06-28 11:00:00 21.2 3 Sudeste 9 Noroeste 0 -- -- 77
2020-06-28 10:00:00 19.2 0 Calma 6 Norte 0 -- -- 85
2020-06-28 09:00:00 17 2 Oeste 5 Noroeste 0 -- -- 94
2020-06-28 08:00:00 16.6 0 Calma 5 Sudeste 0 -- -- 98
2020-06-28 07:00:00 16.4 0 Calma 4 Sur 0 -- -- 98
2020-06-28 06:00:00 16.3 0 Calma 4 Sudoeste 0 -- -- 97
2020-06-28 05:00:00 16.3 2 Oeste 4 Nordeste 0 -- -- 97
2020-06-28 04:00:00 16.4 3 Norte 4 Noroeste 0 -- -- 97
2020-06-28 03:00:00 16.5 0 Calma 3 Nordeste 0 -- -- 96
2020-06-28 02:00:00 16.6 0 Calma 2 Norte 0.2 -- -- 95
2020-06-28 01:00:00 16.8 0 Calma 4 Norte 0.2 -- -- 95
2020-06-28 00:00:00 16.9 2 Norte 5 Norte 0 -- -- 95
2020-06-27 23:00:00 17.4 3 Nordeste 7 Nordeste 0 -- -- 92
2020-06-27 22:00:00 17.9 4 Nordeste 21 Norte 0 -- -- 88
2020-06-27 21:00:00 19.1 6 Norte 14 Nordeste 0 -- -- 86
2020-06-27 20:00:00 20 8 Norte 16 Noroeste 0 -- -- 83
2020-06-27 19:00:00 21.2 12 Noroeste 23 Noroeste 0 -- -- 79
2020-06-27 18:00:00 24 7 Norte 19 Norte 0 -- -- 62
2020-06-27 17:00:00 24 7 Norte 20 Norte 0 -- -- 62
2020-06-27 16:00:00 24.1 14 Norte 25 Norte 0 -- -- 61
2020-06-27 15:00:00 25.5 15 Norte 26 Nordeste 0 -- -- 56
2020-06-27 14:00:00 25.7 6 Norte 11 Nordeste 0 -- -- 52
2020-06-27 13:00:00 25.1 5 Nordeste 11 Norte 0 -- -- 52
2020-06-27 12:00:00 23.5 3 Nordeste 9 Norte 0 -- -- 60
2020-06-27 11:00:00 21 6 Noroeste 9 Oeste 0 -- -- 72
2020-06-27 10:00:00 18.2 2 Sudeste 6 Sudeste 0 -- -- 87
2020-06-27 09:00:00 14.8 0 Calma 5 Noroeste 0 -- -- 100
2020-06-27 08:00:00 12.2 2 Este 5 Nordeste 0 -- -- 100
2020-06-27 07:00:00 10.9 2 Sudoeste 7 Noroeste 0 -- -- 99
2020-06-27 06:00:00 11.3 3 Sur 5 Sudeste 0 -- -- 98
2020-06-27 05:00:00 11.8 0 Calma 6 Noroeste 0 -- -- 99
2020-06-27 04:00:00 12.3 0 Calma 4 Sudeste 0 -- -- 99
2020-06-27 03:00:00 12.9 3 Noroeste 6 Noroeste 0 -- -- 98
2020-06-27 02:00:00 13.2 0 Calma 5 Noroeste 0 -- -- 97
2020-06-27 01:00:00 13.9 0 Calma 4 Oeste 0 -- -- 95
2020-06-27 00:00:00 14.9 3 Sur 4 Sudoeste 0 -- -- 95
2020-06-26 23:00:00 16.3 0 Calma 3 Sudeste 0 -- -- 93
2020-06-26 22:00:00 17.6 3 Oeste 9 Norte 0 -- -- 92
2020-06-26 21:00:00 20.3 4 Noroeste 9 Noroeste 0 -- -- 78
2020-06-26 20:00:00 19.9 4 Noroeste 13 Sudeste 0 -- -- 83
2020-06-26 19:00:00 18.7 8 Sudeste 15 Sudeste 0 -- -- 86
2020-06-26 18:00:00 17.3 2 Sur 13 Sudeste 0 -- -- 96
2020-06-26 17:00:00 16.8 6 Norte 10 Norte 0.2 -- -- 95
2020-06-26 16:00:00 16.3 0 Calma 9 Nordeste 0.4 -- -- 98
2020-06-26 15:00:00 16.4 5 Nordeste 8 Norte 0.4 -- -- 97
2020-06-26 14:00:00 16.7 3 Norte 9 Norte 0 -- -- 94
2020-06-26 13:00:00 16.5 3 Nordeste 6 Noroeste 0 -- -- 95
2020-06-26 12:00:00 16.2 5 Noroeste 6 Noroeste 0 -- -- 95
2020-06-26 11:00:00 16 4 Oeste 8 Oeste 0 -- -- 97
2020-06-26 10:00:00 15.7 3 Noroeste 4 Norte 0 -- -- 98
2020-06-26 09:00:00 15.5 0 Calma 5 Norte 0 -- -- 99
2020-06-26 08:00:00 15.6 4 Norte 6 Norte 0 -- -- 99
2020-06-26 07:00:00 15.5 0 Calma 2 Sudeste 0.2 -- -- 99
2020-06-26 06:00:00 15.4 0 Calma 4 Norte 0.2 -- -- 99
2020-06-26 05:00:00 15.6 0 Calma 3 Norte 0.2 -- -- 98
2020-06-26 04:00:00 15.6 0 Calma 2 Sudeste 0.2 -- -- 98
2020-06-26 03:00:00 15.6 0 Calma 4 Sudeste 0.2 -- -- 98
2020-06-26 02:00:00 15.6 3 Sudeste 8 Noroeste 0 -- -- 98
2020-06-26 01:00:00 15.7 4 Noroeste 10 Este 0 -- -- 96
2020-06-26 00:00:00 16.2 2 Noroeste 14 Norte 0 -- -- 97
2020-06-25 23:00:00 16.2 4 Noroeste 14 Nordeste 0.2 -- -- 97
2020-06-25 22:00:00 16.3 4 Noroeste 14 Sudeste 1.4 -- -- 97
2020-06-25 21:00:00 16.5 3 Sur 12 Noroeste 0 -- -- 97
2020-06-25 20:00:00 16.7 4 Nordeste 9 Noroeste 0.2 -- -- 96
2020-06-25 19:00:00 16.8 4 Noroeste 18 Noroeste 0 -- -- 95
2020-06-25 18:00:00 17.1 12 Noroeste 20 Noroeste 0 -- -- 93
2020-06-25 17:00:00 17.4 2 Norte 15 Noroeste 1 -- -- 95
2020-06-25 16:00:00 18.1 4 Sudeste 17 Este 0.2 -- -- 94
2020-06-25 15:00:00 18.1 8 Noroeste 26 Sudeste 0 -- -- 92
2020-06-25 14:00:00 18.3 6 Norte 14 Oeste 0 -- -- 93
2020-06-25 13:00:00 17.7 6 Noroeste 13 Oeste 0 -- -- 90
2020-06-25 12:00:00 17.5 8 Noroeste 22 Noroeste 0 -- -- 91
2020-06-25 11:00:00 19 14 Noroeste 30 Noroeste 0 -- -- 86
2020-06-25 10:00:00 17.4 5 Sudeste 15 Sudeste 0.2 -- -- 93
2020-06-25 09:00:00 17 4 Sur 10 Sur 0 -- -- 91
2020-06-25 08:00:00 16.6 3 Norte 12 Norte 0 -- -- 89
2020-06-25 07:00:00 16.7 5 Oeste 10 Sudoeste 0 -- -- 92
2020-06-25 06:00:00 17.3 5 Noroeste 10 Este 0 -- -- 90
2020-06-25 05:00:00 18.1 6 Este 13 Este 0 -- -- 86
2020-06-25 04:00:00 19.5 8 Noroeste 24 Nordeste 0 -- -- 81
2020-06-25 03:00:00 19.3 5 Sudoeste 20 Noroeste 0 -- -- 87
2020-06-25 02:00:00 18.7 4 Sudoeste 14 Sudoeste 0 -- -- 92
2020-06-25 01:00:00 18.6 2 Sudoeste 8 Este 0 -- -- 93
2020-06-25 00:00:00 18.8 3 Noroeste 11 Norte 0 -- -- 92
2020-06-24 23:00:00 19 4 Oeste 7 Noroeste 0 -- -- 91
2020-06-24 22:00:00 19.2 3 Sudoeste 10 Noroeste 0 -- -- 90
2020-06-24 21:00:00 19.7 5 Sudoeste 25 Sur 0 -- -- 87
2020-06-24 20:00:00 19.2 4 Oeste 19 Noroeste 0 -- -- 87
2020-06-24 19:00:00 20 8 Norte 19 Noroeste 0 -- -- 86
2020-06-24 18:00:00 22.3 9 Norte 17 Norte 0 -- -- 82
2020-06-24 17:00:00 23.4 10 Nordeste 18 Norte 0 -- -- 80
2020-06-24 16:00:00 23.8 8 Noroeste 16 Norte 0 -- -- 82
2020-06-24 15:00:00 23.7 8 Norte 15 Norte 0 -- -- 81
2020-06-24 14:00:00 22.4 11 Nordeste 17 Norte 0 -- -- 84
2020-06-24 13:00:00 22.3 8 Nordeste 14 Nordeste 0 -- -- 86
2020-06-24 12:00:00 21.2 9 Norte 16 Norte 0 -- -- 86
2020-06-24 11:00:00 21.4 10 Norte 15 Norte 0 -- -- 85
2020-06-24 10:00:00 20.6 6 Norte 12 Norte 0 -- -- 87
2020-06-24 09:00:00 17.6 0 Calma 6 Nordeste 0 -- -- 98
2020-06-24 08:00:00 17.6 3 Este 5 Norte 0 -- -- 97
2020-06-24 07:00:00 16.5 0 Calma 8 Noroeste 0 -- -- 96
2020-06-24 06:00:00 16.9 2 Sudeste 6 Sudeste 0 -- -- 96
2020-06-24 05:00:00 17.6 5 Noroeste 8 Noroeste 0 -- -- 96
2020-06-24 04:00:00 17.8 4 Sudoeste 10 Nordeste 0 -- -- 97
2020-06-24 03:00:00 18.1 3 Sudeste 8 Oeste 0 -- -- 95
2020-06-24 02:00:00 18.5 4 Sudeste 9 Nordeste 0 -- -- 94
2020-06-24 01:00:00 19.1 2 Sudoeste 5 Sur 0 -- -- 92
2020-06-24 00:00:00 20.4 0 Calma 3 Sudoeste 0 -- -- 87
2020-06-23 23:00:00 21.6 2 Sudoeste 5 Norte 0 -- -- 83
2020-06-23 22:00:00 23.3 3 Oeste 9 Noroeste 0 -- -- 76
2020-06-23 21:00:00 26 3 Noroeste 9 Norte 0 -- -- 67
2020-06-23 20:00:00 27 7 Nordeste 14 Norte 0 -- -- 65
2020-06-23 19:00:00 27.7 9 Nordeste 19 Norte 0 -- -- 64
2020-06-23 18:00:00 28.3 12 Nordeste 20 Nordeste 0 -- -- 64
2020-06-23 17:00:00 29.2 12 Nordeste 21 Nordeste 0 -- -- 60
2020-06-23 16:00:00 29.3 10 Nordeste 17 Nordeste 0 -- -- 62
2020-06-23 15:00:00 29 7 Nordeste 15 Nordeste 0 -- -- 60
2020-06-23 14:00:00 28.2 6 Norte 10 Norte 0 -- -- 62
2020-06-23 13:00:00 27.2 8 Nordeste 12 Este 0 -- -- 58
2020-06-23 12:00:00 25.3 4 Este 8 Nordeste 0 -- -- 73
2020-06-23 11:00:00 22.2 0 Calma 0 Calma 0 -- -- 75
2020-06-23 10:00:00 18.2 0 Calma 0 Calma 0 -- -- 92
2020-06-23 09:00:00 14.9 0 Calma 0 Calma 0 -- -- 100
2020-06-23 08:00:00 13.8 0 Calma 0 Calma 0 -- -- 99
2020-06-23 07:00:00 13.9 0 Calma 0 Calma 0 -- -- 98
2020-06-23 06:00:00 14.4 0 Calma 0 Calma 0 -- -- 98
2020-06-23 05:00:00 14.7 0 Calma 0 Calma 0 -- -- 98
2020-06-23 04:00:00 14.9 0 Calma 0 Calma 0 -- -- 98
2020-06-23 03:00:00 14.8 0 Calma 4 Noroeste 0 -- -- 96
2020-06-23 02:00:00 15.6 0 Calma 4 Sudoeste 0 -- -- 95
2020-06-23 01:00:00 16.5 0 Calma 4 Noroeste 0 -- -- 94
2020-06-23 00:00:00 17.3 0 Calma 4 Noroeste 0 -- -- 90
2020-06-22 23:00:00 18.3 3 Noroeste 7 Norte 0 -- -- 87
2020-06-22 22:00:00 19.8 6 Norte 12 Nordeste 0 -- -- 82
2020-06-22 21:00:00 22.5 5 Nordeste 9 Nordeste 0 -- -- 75
2020-06-22 20:00:00 23.8 5 Norte 14 Norte 0 -- -- 71
2020-06-22 19:00:00 24.6 8 Nordeste 14 Norte 0 -- -- 70
2020-06-22 18:00:00 25.1 9 Nordeste 19 Nordeste 0 -- -- 69
2020-06-22 17:00:00 25.2 12 Nordeste 22 Nordeste 0 -- -- 69
2020-06-22 16:00:00 25.4 12 Nordeste 21 Nordeste 0 -- -- 73
2020-06-22 15:00:00 24.9 10 Nordeste 19 Nordeste 0 -- -- 66
2020-06-22 14:00:00 24.4 6 Nordeste 14 Nordeste 0 -- -- 65
2020-06-22 13:00:00 23.6 9 Nordeste 17 Norte 0 -- -- 71
2020-06-22 12:00:00 22.4 5 Norte 12 Norte 0 -- -- 64
2020-06-22 11:00:00 21 4 Noroeste 7 Norte 0 -- -- 72
2020-06-22 10:00:00 19.2 0 Calma 4 Norte 0 -- -- 81
2020-06-22 09:00:00 16.1 2 Norte 4 Este 0 -- -- 92
2020-06-22 08:00:00 14 0 Calma 4 Oeste 0 -- -- 98
2020-06-22 07:00:00 13.3 0 Calma 4 Noroeste 0 -- -- 95
2020-06-22 06:00:00 14.4 0 Calma 3 Nordeste 0 -- -- 93
2020-06-22 05:00:00 15.6 0 Calma 5 Norte 0 -- -- 93
2020-06-22 04:00:00 17 0 Calma 3 Sur 0 -- -- 90
2020-06-22 03:00:00 17.3 3 Nordeste 5 Nordeste 0 -- -- 90
2020-06-22 02:00:00 17.9 0 Calma 2 Noroeste 0 -- -- 88
2020-06-22 01:00:00 18.1 0 Calma 5 Norte 0 -- -- 83
2020-06-22 00:00:00 18.6 2 Oeste 13 Noroeste 0 -- -- 79
2020-06-21 23:00:00 18.8 8 Norte 13 Norte 0 -- -- 76
2020-06-21 22:00:00 19.7 3 Nordeste 6 Norte 0 -- -- 74
2020-06-21 21:00:00 20.1 3 Noroeste 11 Norte 0 -- -- 71
2020-06-21 20:00:00 20.5 5 Noroeste 16 Norte 0 -- -- 70
2020-06-21 19:00:00 21.3 8 Norte 17 Nordeste 0 -- -- 66
2020-06-21 18:00:00 21.8 7 Nordeste 22 Norte 0 -- -- 64
2020-06-21 17:00:00 22.3 13 Nordeste 24 Norte 0 -- -- 64
2020-06-21 16:00:00 22.9 15 Norte 26 Norte 0 -- -- 65
2020-06-21 15:00:00 23.1 12 Norte 20 Norte 0 -- -- 65
2020-06-21 14:00:00 22.4 4 Nordeste 17 Este 0 -- -- 69
2020-06-21 13:00:00 21.5 9 Nordeste 17 Norte 0 -- -- 71
2020-06-21 12:00:00 21.2 3 Norte 12 Este 0 -- -- 75
2020-06-21 11:00:00 20.5 6 Este 9 Este 0 -- -- 74
2020-06-21 10:00:00 18.1 2 Nordeste 6 Nordeste 0 -- -- 87
2020-06-21 09:00:00 14.8 0 Calma 4 Este 0 -- -- 97
2020-06-21 08:00:00 12.3 0 Calma 3 Nordeste 0 -- -- 99
2020-06-21 07:00:00 11.2 0 Calma 3 Noroeste 0 -- -- 98
2020-06-21 06:00:00 11.9 0 Calma 4 Norte 0 -- -- 97
2020-06-21 05:00:00 12.3 0 Calma 4 Noroeste 0 -- -- 96
2020-06-21 04:00:00 12.6 0 Calma 3 Sudeste 0 -- -- 95
2020-06-21 03:00:00 13.1 2 Sudoeste 6 Norte 0 -- -- 95
2020-06-21 02:00:00 13.6 4 Norte 6 Norte 0 -- -- 94
2020-06-21 01:00:00 14.4 2 Noroeste 5 Noroeste 0 -- -- 92
2020-06-21 00:00:00 15.3 0 Calma 8 Norte 0 -- -- 88
2020-06-20 23:00:00 17 2 Norte 5 Norte 0 -- -- 84
2020-06-20 22:00:00 19.2 0 Calma 7 Noroeste 0 -- -- 74
2020-06-20 21:00:00 19.7 3 Noroeste 18 Norte 0 -- -- 72
2020-06-20 20:00:00 20.8 10 Norte 22 Norte 0 -- -- 67
2020-06-20 19:00:00 22.1 15 Norte 23 Norte 0 -- -- 62
2020-06-20 18:00:00 22 10 Norte 21 Norte 0 -- -- 62
2020-06-20 17:00:00 22 14 Norte 28 Norte 0 -- -- 62
2020-06-20 16:00:00 22 14 Norte 27 Norte 0 -- -- 61
2020-06-20 15:00:00 22.5 13 Norte 24 Norte 0 -- -- 64
2020-06-20 14:00:00 22.4 12 Norte 22 Norte 0 -- -- 63
2020-06-20 13:00:00 21.7 9 Norte 17 Norte 0 -- -- 67
2020-06-20 12:00:00 20.8 7 Nordeste 12 Norte 0 -- -- 67
2020-06-20 11:00:00 19.3 3 Este 6 Sudeste 0 -- -- 64
2020-06-20 10:00:00 15.9 0 Calma 4 Norte 0 -- -- 85
2020-06-20 09:00:00 12.4 0 Calma 4 Nordeste 0 -- -- 98
2020-06-20 08:00:00 10.6 0 Calma 2 Nordeste 0 -- -- 100
2020-06-20 07:00:00 9.6 0 Calma 4 Noroeste 0 -- -- 98
2020-06-20 06:00:00 10.2 0 Calma 2 Este 0 -- -- 98
2020-06-20 05:00:00 10.5 0 Calma 3 Norte 0 -- -- 97
2020-06-20 04:00:00 10.9 0 Calma 3 Norte 0 -- -- 97
2020-06-20 03:00:00 11.5 0 Calma 2 Norte 0 -- -- 96
2020-06-20 02:00:00 12 0 Calma 4 Noroeste 0 -- -- 94
2020-06-20 01:00:00 12.6 0 Calma 3 Sudeste 0 -- -- 92
2020-06-20 00:00:00 13.7 0 Calma 5 Este 0 -- -- 90
2020-06-19 23:00:00 14.9 2 Sudoeste 9 Noroeste 0 -- -- 86
2020-06-19 22:00:00 16.4 5 Norte 6 Norte 0 -- -- 79
2020-06-19 21:00:00 17.3 4 Norte 10 Nordeste 0 -- -- 75
2020-06-19 20:00:00 17.8 5 Norte 10 Norte 0 -- -- 74
2020-06-19 19:00:00 18 6 Nordeste 17 Norte 0 -- -- 72
2020-06-19 18:00:00 17.6 10 Norte 21 Norte 0 -- -- 72
2020-06-19 17:00:00 18.4 11 Norte 26 Nordeste 0 -- -- 67
2020-06-19 16:00:00 19 13 Norte 24 Nordeste 0 -- -- 66
2020-06-19 15:00:00 19.4 12 Norte 21 Norte 0 -- -- 65
2020-06-19 14:00:00 19 13 Nordeste 19 Norte 0 -- -- 68
2020-06-19 13:00:00 18.7 6 Norte 17 Norte 0 -- -- 61
2020-06-19 12:00:00 19 7 Nordeste 13 Nordeste 0 -- -- 65
2020-06-19 11:00:00 17.3 5 Norte 12 Nordeste 0 -- -- 64
2020-06-19 10:00:00 16.2 3 Nordeste 8 Norte 0 -- -- 79
2020-06-19 09:00:00 13 3 Noroeste 4 Noroeste 0 -- -- 97
2020-06-19 08:00:00 11.5 0 Calma 3 Sudeste 0 -- -- 98
2020-06-19 07:00:00 11.2 0 Calma 5 Norte 0 -- -- 97
2020-06-19 06:00:00 12.1 0 Calma 3 Sur 0 -- -- 96
2020-06-19 05:00:00 12.4 0 Calma 2 Noroeste 0 -- -- 96
2020-06-19 04:00:00 12.6 0 Calma 3 Oeste 0 -- -- 95
2020-06-19 03:00:00 12.7 0 Calma 3 Norte 0 -- -- 93
2020-06-19 02:00:00 12.9 0 Calma 3 Nordeste 0 -- -- 93
2020-06-19 01:00:00 13 2 Sudeste 6 Oeste 0 -- -- 91
2020-06-19 00:00:00 14.1 2 Sur 4 Sur 0 -- -- 88
2020-06-18 23:00:00 14.9 0 Calma 10 Noroeste 0 -- -- 82
2020-06-18 22:00:00 15.4 6 Noroeste 12 Norte 0 -- -- 77
2020-06-18 21:00:00 16.3 6 Norte 14 Norte 0 -- -- 72
2020-06-18 20:00:00 16.7 7 Norte 14 Norte 0 -- -- 75
2020-06-18 19:00:00 16.8 10 Norte 18 Norte 0 -- -- 72
2020-06-18 18:00:00 17.1 12 Norte 21 Norte 0 -- -- 71
2020-06-18 17:00:00 17.6 12 Norte 21 Norte 0 -- -- 70
2020-06-18 16:00:00 17.6 11 Norte 20 Nordeste 0 -- -- 71
2020-06-18 15:00:00 17.9 9 Norte 19 Norte 0 -- -- 71
2020-06-18 14:00:00 17.8 13 Norte 20 Norte 0 -- -- 75
2020-06-18 13:00:00 17.3 5 Noroeste 10 Norte 0 -- -- 70
2020-06-18 12:00:00 16.5 2 Sur 9 Noroeste 0 -- -- 74
2020-06-18 11:00:00 15.8 5 Sudeste 8 Este 0 -- -- 78
2020-06-18 10:00:00 14 3 Noroeste 6 Noroeste 0 -- -- 90
2020-06-18 09:00:00 13 0 Calma 2 Nordeste 0 -- -- 97
2020-06-18 08:00:00 12.5 0 Calma 4 Noroeste 0 -- -- 98
2020-06-18 07:00:00 12.3 2 Norte 3 Norte 0 -- -- 98
2020-06-18 06:00:00 12.4 0 Calma 4 Nordeste 0 -- -- 98
2020-06-18 05:00:00 12.4 0 Calma 3 Nordeste 0 -- -- 97
2020-06-18 04:00:00 12.4 3 Este 4 Este 0.2 -- -- 97
2020-06-18 03:00:00 12.6 0 Calma 4 Nordeste 1 -- -- 95
2020-06-18 02:00:00 13 3 Nordeste 5 Nordeste 1.6 -- -- 96
2020-06-18 01:00:00 13.6 3 Noroeste 5 Noroeste 0.8 -- -- 94
2020-06-18 00:00:00 14 3 Norte 6 Noroeste 0 -- -- 89
2020-06-17 23:00:00 14.4 4 Noroeste 6 Noroeste 0 -- -- 88
2020-06-17 22:00:00 14.9 5 Noroeste 10 Noroeste 0 -- -- 83
2020-06-17 21:00:00 15.5 3 Norte 13 Norte 0 -- -- 81
2020-06-17 20:00:00 15.8 4 Oeste 14 Noroeste 0 -- -- 76
2020-06-17 19:00:00 16.1 4 Noroeste 10 Noroeste 0 -- -- 78
2020-06-17 18:00:00 16 6 Norte 13 Norte 0 -- -- 81
2020-06-17 17:00:00 17 8 Noroeste 23 Noroeste 0 -- -- 73
2020-06-17 16:00:00 17 13 Norte 26 Noroeste 0 -- -- 71
2020-06-17 15:00:00 17.3 11 Norte 22 Noroeste 0 -- -- 70
2020-06-17 14:00:00 17.3 10 Noroeste 21 Norte 0 -- -- 68
2020-06-17 13:00:00 17.3 8 Noroeste 21 Noroeste 0 -- -- 73
2020-06-17 12:00:00 16.7 9 Norte 21 Noroeste 0 -- -- 74
2020-06-17 11:00:00 16 9 Noroeste 15 Noroeste 0 -- -- 76
2020-06-17 10:00:00 15.7 4 Noroeste 14 Sudeste 0 -- -- 76
2020-06-17 09:00:00 14.3 5 Sudeste 8 Sur 0 -- -- 91
2020-06-17 08:00:00 12.3 3 Sudeste 6 Sudeste 0 -- -- 97
2020-06-17 07:00:00 11.9 3 Este 5 Sudeste 0.2 -- -- 97
2020-06-17 06:00:00 12.5 3 Este 6 Sudoeste 0 -- -- 96
2020-06-17 05:00:00 13 0 Calma 6 Norte 0 -- -- 95
2020-06-17 04:00:00 13.2 0 Calma 8 Sudeste 0 -- -- 92
2020-06-17 03:00:00 13.5 0 Calma 5 Norte 0 -- -- 92
2020-06-17 02:00:00 13.7 3 Sur 15 Noroeste 0 -- -- 90
2020-06-17 01:00:00 13.9 0 Calma 8 Oeste 0 -- -- 90
2020-06-17 00:00:00 14.2 3 Oeste 22 Oeste 0 -- -- 90
2020-06-16 23:00:00 14.4 8 Norte 19 Noroeste 0 -- -- 87
2020-06-16 22:00:00 14.1 4 Oeste 17 Sudoeste 0 -- -- 88
2020-06-16 21:00:00 14.4 3 Sudeste 19 Noroeste 0 -- -- 88
2020-06-16 20:00:00 15.1 6 Noroeste 24 Noroeste 0 -- -- 83
2020-06-16 19:00:00 15.2 6 Noroeste 19 Oeste 0 -- -- 81
2020-06-16 18:00:00 14.7 8 Sudeste 15 Sudeste 0 -- -- 90
2020-06-16 17:00:00 14.8 4 Noroeste 16 Noroeste 0 -- -- 86
2020-06-16 16:00:00 14.3 10 Noroeste 24 Noroeste 1.4 -- -- 91
2020-06-16 15:00:00 14.5 3 Norte 9 Nordeste 0 -- -- 93
2020-06-16 14:00:00 14.4 5 Norte 15 Norte 0 -- -- 93
2020-06-16 13:00:00 14.4 6 Nordeste 17 Norte 0 -- -- 94
2020-06-16 12:00:00 15.2 9 Norte 16 Norte 0.2 -- -- 92
2020-06-16 11:00:00 15.4 9 Nordeste 14 Nordeste 0 -- -- 86
2020-06-16 10:00:00 15.2 4 Noroeste 10 Norte 0 -- -- 90
2020-06-16 09:00:00 13.6 3 Norte 5 Sudeste 0 -- -- 97
2020-06-16 08:00:00 12.7 0 Calma 5 Noroeste 0 -- -- 98
2020-06-16 07:00:00 12.7 0 Calma 6 Noroeste 0 -- -- 96
2020-06-16 06:00:00 13.3 4 Sudeste 11 Este 0 -- -- 97
2020-06-16 05:00:00 13.6 4 Sudeste 8 Sudeste 0.2 -- -- 98
2020-06-16 04:00:00 13.5 2 Noroeste 4 Sudoeste 0.2 -- -- 98
2020-06-16 03:00:00 13.5 3 Sudoeste 4 Sur 0 -- -- 98
2020-06-16 02:00:00 13.7 0 Calma 3 Sudeste 0 -- -- 97
2020-06-16 01:00:00 13.6 0 Calma 5 Norte 0 -- -- 97
2020-06-16 00:00:00 13.8 0 Calma 4 Norte 0 -- -- 96
2020-06-15 23:00:00 13.7 0 Calma 4 Noroeste 0 -- -- 97
2020-06-15 22:00:00 13.9 0 Calma 5 Este 0.2 -- -- 96
2020-06-15 21:00:00 13.9 0 Calma 4 Sudoeste 2.2 -- -- 93
2020-06-15 20:00:00 14.1 0 Calma 7 Oeste 2.2 -- -- 93
2020-06-15 19:00:00 14.6 5 Noroeste 18 Noroeste 0.4 -- -- 88
2020-06-15 18:00:00 16.3 10 Noroeste 23 Norte 0 -- -- 74
2020-06-15 17:00:00 18 13 Norte 26 Nordeste 0 -- -- 67
2020-06-15 16:00:00 20.1 11 Norte 22 Norte 0 -- -- 63
2020-06-15 15:00:00 19.8 10 Norte 20 Nordeste 0 -- -- 60
2020-06-15 14:00:00 19.4 7 Norte 16 Nordeste 0 -- -- 60
2020-06-15 13:00:00 19.7 6 Nordeste 15 Nordeste 0 -- -- 64
2020-06-15 12:00:00 18.9 5 Nordeste 10 Nordeste 0 -- -- 61
2020-06-15 11:00:00 17.5 4 Este 8 Sudeste 0 -- -- 83
2020-06-15 10:00:00 14.9 2 Noroeste 6 Este 0 -- -- 92
2020-06-15 09:00:00 13.9 0 Calma 6 Sudeste 0 -- -- 98
2020-06-15 08:00:00 13.6 3 Nordeste 5 Este 0 -- -- 98
2020-06-15 07:00:00 13.4 0 Calma 7 Noroeste 0 -- -- 98
2020-06-15 06:00:00 13.4 0 Calma 3 Sur 0 -- -- 97
2020-06-15 05:00:00 13.5 0 Calma 4 Oeste 0 -- -- 96
2020-06-15 04:00:00 13.5 0 Calma 4 Norte 0 -- -- 96
2020-06-15 03:00:00 13.9 0 Calma 5 Oeste 0 -- -- 96
2020-06-15 02:00:00 14 0 Calma 3 Sur 0 -- -- 94
2020-06-15 01:00:00 14.2 0 Calma 3 Sudoeste 0.2 -- -- 92
2020-06-15 00:00:00 14.6 0 Calma 4 Sudeste 0 -- -- 93
2020-06-14 23:00:00 14.7 0 Calma 9 Noroeste 0.2 -- -- 90
2020-06-14 22:00:00 15.3 5 Oeste 13 Noroeste 0.4 -- -- 87
2020-06-14 21:00:00 16.2 4 Norte 18 Norte 0 -- -- 74
2020-06-14 20:00:00 16.8 7 Norte 17 Noroeste 0 -- -- 69
2020-06-14 19:00:00 17.8 8 Norte 22 Nordeste 0 -- -- 64
2020-06-14 18:00:00 18.4 12 Norte 23 Nordeste 0 -- -- 61
2020-06-14 17:00:00 18.8 14 Norte 23 Norte 0 -- -- 60
2020-06-14 16:00:00 19.1 15 Norte 24 Nordeste 0 -- -- 58
2020-06-14 15:00:00 19.4 11 Norte 23 Norte 0 -- -- 56
2020-06-14 14:00:00 19.1 10 Norte 19 Norte 0 -- -- 62
2020-06-14 13:00:00 19.8 5 Nordeste 13 Noroeste 0 -- -- 57
2020-06-14 12:00:00 18.4 5 Nordeste 9 Norte 0 -- -- 65
2020-06-14 11:00:00 17.4 4 Noroeste 9 Norte 0 -- -- 73
2020-06-14 10:00:00 15 3 Noroeste 6 Noroeste 0 -- -- 87
2020-06-14 09:00:00 13.5 0 Calma 6 Sudeste 0 -- -- 95
2020-06-14 08:00:00 12.4 2 Norte 4 Norte 0 -- -- 97
2020-06-14 07:00:00 12 0 Calma 6 Noroeste 0 -- -- 98
2020-06-14 06:00:00 12.2 0 Calma 4 Sudoeste 0 -- -- 97
2020-06-14 05:00:00 12.3 0 Calma 3 Norte 0 -- -- 97
2020-06-14 04:00:00 12.4 0 Calma 5 Norte 0 -- -- 96
2020-06-14 03:00:00 13.1 0 Calma 4 Noroeste 0 -- -- 96
2020-06-14 02:00:00 13.4 2 Norte 5 Nordeste 0 -- -- 96
2020-06-14 01:00:00 13.7 0 Calma 3 Nordeste 0 -- -- 93
2020-06-14 00:00:00 14.3 0 Calma 6 Noroeste 0 -- -- 90
2020-06-13 23:00:00 14.6 2 Sudeste 8 Noroeste 0 -- -- 90
2020-06-13 22:00:00 15.1 3 Noroeste 6 Noroeste 0 -- -- 86
2020-06-13 21:00:00 15.7 2 Noroeste 5 Sur 0 -- -- 86
2020-06-13 20:00:00 15.8 4 Sudeste 12 Sudeste 0 -- -- 81
2020-06-13 19:00:00 15.7 9 Sudeste 14 Sudeste 0.6 -- -- 83
2020-06-13 18:00:00 15.2 6 Noroeste 21 Norte 0.8 -- -- 83
2020-06-13 17:00:00 17.5 9 Norte 22 Nordeste 0 -- -- 71
2020-06-13 16:00:00 18.2 12 Norte 24 Norte 0 -- -- 69
2020-06-13 15:00:00 18.8 12 Norte 23 Norte 0 -- -- 65
2020-06-13 14:00:00 19 8 Norte 15 Norte 0 -- -- 58
2020-06-13 13:00:00 17.8 3 Noroeste 9 Norte 0 -- -- 62
2020-06-13 12:00:00 16.1 4 Norte 6 Noroeste 0 -- -- 80
2020-06-13 11:00:00 14.2 4 Sudeste 10 Noroeste 0 -- -- 90
2020-06-13 10:00:00 12.7 3 Sudoeste 9 Norte 0 -- -- 96
2020-06-13 09:00:00 12.2 3 Norte 10 Noroeste 0 -- -- 98
2020-06-13 08:00:00 11.3 3 Nordeste 6 Este 0 -- -- 98
2020-06-13 07:00:00 11 2 Nordeste 8 Oeste 0 -- -- 98
2020-06-13 06:00:00 10.8 3 Este 8 Sudeste 0.2 -- -- 98
2020-06-13 05:00:00 10.7 2 Norte 7 Norte 0 -- -- 97
2020-06-13 04:00:00 10.5 3 Sudoeste 5 Noroeste 0 -- -- 97
2020-06-13 03:00:00 10.4 3 Sudeste 8 Noroeste 0 -- -- 97
2020-06-13 02:00:00 10.2 0 Calma 9 Noroeste 0 -- -- 96
2020-06-13 01:00:00 9.6 5 Sudeste 7 Sur 0 -- -- 96
2020-06-13 00:00:00 9.9 4 Noroeste 6 Noroeste 0 -- -- 94
2020-06-12 23:00:00 10.9 2 Sur 6 Oeste 0 -- -- 90
2020-06-12 22:00:00 13 4 Noroeste 8 Noroeste 0 -- -- 83
2020-06-12 21:00:00 15.5 2 Sudoeste 7 Este 0 -- -- 74
2020-06-12 20:00:00 16.1 3 Sudeste 15 Sudeste 0 -- -- 62
2020-06-12 19:00:00 15.1 7 Sudeste 15 Sudeste 0 -- -- 68
2020-06-12 18:00:00 12.7 6 Sur 13 Sudeste 0 -- -- 86
2020-06-12 17:00:00 11.8 5 Sur 39 Oeste 3.4 -- -- 86
2020-06-12 16:00:00 13 14 Oeste 31 Noroeste 5.2 -- -- 87
2020-06-12 15:00:00 16.7 13 Norte 21 Norte 0 -- -- 67
2020-06-12 14:00:00 17.3 10 Nordeste 18 Nordeste 0 -- -- 64
2020-06-12 13:00:00 16.8 10 Noroeste 25 Noroeste 0 -- -- 63
2020-06-12 12:00:00 15.9 10 Noroeste 26 Noroeste 0 -- -- 69
2020-06-12 11:00:00 15.8 12 Norte 20 Noroeste 0 -- -- 61
2020-06-12 10:00:00 15.5 3 Norte 8 Este 0 -- -- 65
2020-06-12 09:00:00 13.7 2 Nordeste 5 Nordeste 0 -- -- 78
2020-06-12 08:00:00 11 2 Sudeste 10 Nordeste 0 -- -- 89
2020-06-12 07:00:00 11.4 5 Norte 18 Sur 0 -- -- 83
2020-06-12 06:00:00 13.7 11 Sur 31 Sur 0 -- -- 65
2020-06-12 05:00:00 13.3 13 Sudoeste 47 Sudeste 0 -- -- 63
2020-06-12 04:00:00 13.8 21 Sudoeste 49 Sur 0 -- -- 61
2020-06-12 03:00:00 13.8 23 Sudoeste 47 Sudoeste 0 -- -- 60
2020-06-12 02:00:00 12.3 11 Sur 43 Sur 0.2 -- -- 71
2020-06-12 01:00:00 10 4 Nordeste 12 Noroeste 0 -- -- 90
2020-06-12 00:00:00 8.9 2 Sudeste 5 Noroeste 0 -- -- 98
2020-06-11 23:00:00 9.3 2 Sudoeste 6 Sur 0 -- -- 96
2020-06-11 22:00:00 10 3 Sur 9 Este 2 -- -- 95
2020-06-11 21:00:00 10.4 5 Sur 10 Sudeste 1.8 -- -- 94
2020-06-11 20:00:00 11.1 6 Noroeste 19 Oeste 2.2 -- -- 90
2020-06-11 19:00:00 11.7 8 Norte 14 Este 2.4 -- -- 94
2020-06-11 18:00:00 12 0 Calma 13 Este 0.4 -- -- 90
2020-06-11 17:00:00 12.3 4 Sudeste 14 Sudeste 1 -- -- 93
2020-06-11 16:00:00 11.6 9 Sudeste 16 Sudeste 4 -- -- 95
2020-06-11 15:00:00 12 7 Sudeste 23 Norte 2.6 -- -- 92
2020-06-11 14:00:00 12.6 9 Oeste 43 Noroeste 1 -- -- 87
2020-06-11 13:00:00 13 12 Oeste 40 Noroeste 1.2 -- -- 93
2020-06-11 12:00:00 14.5 17 Noroeste 38 Oeste 0.4 -- -- 89
2020-06-11 11:00:00 15.4 3 Nordeste 10 Este 0.2 -- -- 90
2020-06-11 10:00:00 14.2 2 Noroeste 8 Sudeste 0 -- -- 89
2020-06-11 09:00:00 13.2 4 Nordeste 8 Oeste 0 -- -- 96
2020-06-11 08:00:00 12.5 3 Este 7 Sudeste 0 -- -- 98
2020-06-11 07:00:00 12.2 2 Noroeste 5 Oeste 0 -- -- 98
2020-06-11 06:00:00 12.1 0 Calma 5 Noroeste 0 -- -- 98
2020-06-11 05:00:00 12 0 Calma 4 Sur 0 -- -- 97
2020-06-11 04:00:00 12.3 0 Calma 3 Oeste 0 -- -- 97
2020-06-11 03:00:00 12.7 2 Norte 4 Noroeste 0 -- -- 97
2020-06-11 02:00:00 13.2 0 Calma 5 Noroeste 0 -- -- 95
2020-06-11 01:00:00 13.3 0 Calma 6 Norte 0 -- -- 96
2020-06-11 00:00:00 13.6 0 Calma 4 Sur 0 -- -- 92
2020-06-10 23:00:00 13.8 0 Calma 4 Norte 0 -- -- 95
2020-06-10 22:00:00 14.2 0 Calma 4 Este 0 -- -- 91
2020-06-10 21:00:00 14.7 3 Norte 5 Norte 0 -- -- 84
2020-06-10 20:00:00 15.3 0 Calma 11 Norte 0 -- -- 80
2020-06-10 19:00:00 15.4 5 Noroeste 15 Norte 0 -- -- 79
2020-06-10 18:00:00 15.9 9 Norte 17 Norte 0 -- -- 79
2020-06-10 17:00:00 16 6 Norte 18 Norte 0 -- -- 80
2020-06-10 16:00:00 16.9 9 Norte 18 Nordeste 0 -- -- 76
2020-06-10 15:00:00 16.5 9 Norte 18 Norte 0 -- -- 78
2020-06-10 14:00:00 16.6 10 Norte 22 Norte 0 -- -- 76
2020-06-10 13:00:00 17.9 8 Nordeste 14 Este 0 -- -- 68
2020-06-10 12:00:00 17.3 7 Nordeste 13 Nordeste 0 -- -- 68
2020-06-10 11:00:00 15.9 5 Norte 9 Norte 0 -- -- 65
2020-06-10 10:00:00 13.2 0 Calma 5 Este 0 -- -- 90
2020-06-10 09:00:00 10.3 2 Este 6 Noroeste 0 -- -- 100
2020-06-10 08:00:00 8.8 0 Calma 4 Noroeste 0 -- -- 100
2020-06-10 07:00:00 7.7 0 Calma 5 Oeste 0 -- -- 100
2020-06-10 06:00:00 7.4 0 Calma 5 Norte 0 -- -- 99
2020-06-10 05:00:00 7.1 2 Oeste 8 Norte 0 -- -- 98
2020-06-10 04:00:00 7.7 0 Calma 4 Norte 0 -- -- 98
2020-06-10 03:00:00 8.4 0 Calma 4 Norte 0 -- -- 97
2020-06-10 02:00:00 9.1 3 Noroeste 7 Noroeste 0 -- -- 97
2020-06-10 01:00:00 9.6 0 Calma 3 Sudoeste 0 -- -- 94
2020-06-10 00:00:00 10.7 0 Calma 4 Sudeste 0 -- -- 92